Latest Weather Observations for Sheffield

IDT60801

Issued at 10:35 am EDT Friday 28 November 2014 (issued every 30 minutes, with the page automatically refreshed every 10 minutes)

About weather observations | Map of weather stations | Latest weather observations for TAS | Other Formats
Station Details ID: 091291 Name: SHEFFIELD SCHOOL FARM Lat: -41.39 Lon: 146.32 Height: 294.2 m
Data from the previous 72 hours. | See also: Recent months at Sheffield
Date/Time
EDT
Temp
°C
App
Temp
°C
Dew
Point
Rel
Hum
%
Delta-T
°C
Wind Press
QNH
hPa
Press
MSL
hPa
Rain
since 9 am
mm
Dir
 
Spd
km/h
Gust
km/h
Spd
kts
Gust
kts
28/10:30am 15.9 13.7 7.7 58 4.1 NW 9 13 5 7 1021.9 1021.9 0.0
28/10:00am 14.5 12.5 7.1 61 3.7 NNW 7 11 4 6 1022.3 1022.3 0.0
28/09:30am 14.1 12.6 6.9 62 3.6 E 4 7 2 4 1022.7 1022.6 0.0
28/09:00am 12.5 11.9 7.2 70 2.6 CALM 0 4 0 2 1022.8 1022.7 0.0
28/08:30am 13.1 11.5 8.2 72 2.5 SE 6 9 3 5 1022.7 1022.6 0.0
28/08:00am 11.9 10.3 7.8 76 2.0 SE 6 7 3 4 1022.8 1022.7 0.0
28/07:30am 11.2 9.8 7.3 77 1.9 SSE 4 6 2 3 1022.7 1022.6 0.0
28/07:00am 9.6 8.6 7.2 85 1.1 SE 2 4 1 2 1022.5 1022.5 0.0
28/06:30am 8.9 8.2 6.9 87 0.9 CALM 0 4 0 2 1022.4 1022.4 0.0
28/06:00am 8.6 7.1 6.7 88 0.9 SE 4 6 2 3 1022.4 1022.4 0.0
28/05:30am 8.6 6.7 6.7 88 0.9 ESE 6 7 3 4 1022.4 1022.4 0.0
28/05:00am 8.8 7.0 7.1 89 0.8 SE 6 6 3 3 1022.2 1022.2 0.0
28/04:30am 8.7 7.2 6.7 87 0.9 ESE 4 4 2 2 1022.2 1022.2 0.0
28/04:00am 8.5 6.9 6.5 87 0.9 SSE 4 4 2 2 1022.3 1022.3 0.0
28/03:30am 8.6 7.0 6.4 86 1.0 SSE 4 6 2 3 1022.4 1022.4 0.0
28/03:00am 8.8 6.7 6.8 87 0.9 S 7 11 4 6 1022.5 1022.5 0.0
28/02:30am 7.5 6.1 5.6 88 0.9 SE 2 6 1 3 1022.9 1022.8 0.0
28/02:00am 8.3 6.5 5.4 82 1.3 SSW 4 9 2 5 1023.1 1023.0 0.0
28/01:30am 8.3 7.3 5.6 83 1.2 CALM 0 0 0 0 1023.0 1022.9 0.0
28/01:00am 8.3 6.6 5.8 84 1.1 W 4 6 2 3 1023.1 1023.0 0.0
28/12:30am 8.8 6.7 6.6 86 1.0 WNW 7 7 4 4 1023.3 1023.2 0.0
28/12:00am 9.2 7.4 7.0 86 1.0 WNW 6 7 3 4 1023.4 1023.3 0.0
 
Date/Time
EDT
Temp
°C
App
Temp
°C
Dew
Point
Rel
Hum
%
Delta-T
°C
Wind Press
QNH
hPa
Press
MSL
hPa
Rain
since 9 am
mm
Dir
 
Spd
km/h
Gust
km/h
Spd
kts
Gust
kts
27/11:30pm 9.3 7.4 6.7 84 1.2 NW 6 9 3 5 1023.4 1023.3 0.0
27/11:00pm 10.4 8.4 7.3 81 1.5 NNW 7 11 4 6 1023.2 1023.1 0.0
27/10:30pm 11.1 8.9 7.8 80 1.6 N 9 11 5 6 1023.1 1023.0 0.0
27/10:00pm 11.2 8.4 6.9 75 2.1 N 11 15 6 8 1022.9 1022.8 0.0
27/09:30pm 11.3 9.2 5.8 69 2.6 ENE 6 13 3 7 1022.3 1022.3 0.0
27/09:00pm 13.3 11.1 6.4 63 3.3 SW 7 9 4 5 1022.0 1022.0 0.0
27/08:30pm 15.0 13.6 5.5 53 4.6 WSW 2 4 1 2 1021.9 1021.9 0.0
27/08:00pm 15.9 14.4 5.2 49 5.1 E 2 6 1 3 1021.7 1021.6 0.0
27/07:30pm 16.3 14.1 6.4 52 4.9 E 7 11 4 6 1021.5 1021.4 0.0
27/07:00pm 17.3 14.3 6.2 48 5.5 ENE 11 17 6 9 1021.3 1021.2 0.0
27/06:30pm 18.6 16.3 5.5 42 6.5 NE 7 13 4 7 1021.0 1020.9 0.0
27/06:00pm 19.2 16.6 6.0 42 6.6 NNE 9 15 5 8 1020.9 1020.8 0.0
27/05:30pm 19.6 16.7 6.4 42 6.7 N 11 19 6 10 1021.0 1020.9 0.0
27/05:00pm 20.1 17.0 5.7 39 7.2 N 11 17 6 9 1021.0 1020.9 0.0
27/04:30pm 19.3 16.0 4.6 38 7.2 N 11 19 6 10 1021.1 1021.0 0.0
27/04:00pm 19.3 15.9 5.7 41 6.8 N 13 24 7 13 1021.2 1021.1 0.0
27/03:30pm 19.7 16.3 6.1 41 6.9 N 13 20 7 11 1021.4 1021.3 0.0
27/03:00pm 18.7 14.0 5.2 41 6.6 N 19 28 10 15 1021.5 1021.4 0.0
27/02:30pm 18.7 14.0 5.2 41 6.6 N 19 28 10 15 1021.6 1021.5 0.0
27/02:00pm 18.9 14.2 5.0 40 6.8 N 19 26 10 14 1021.7 1021.6 0.0
27/01:30pm 19.2 16.0 4.9 39 7.0 NNW 11 24 6 13 1021.9 1021.9 0.0
27/01:00pm 19.1 16.1 1.1 30 8.2 W 6 11 3 6 1021.9 1021.9 0.0
27/12:30pm 18.9 15.8 1.4 31 8.0 NNE 7 13 4 7 1022.0 1022.0 0.0
27/12:00pm 18.4 15.9 3.5 37 7.1 NE 6 9 3 5 1022.2 1022.2 0.0
27/11:30am 17.3 14.7 0.9 33 7.3 E 4 7 2 4 1022.5 1022.5 0.0
27/11:00am 16.1 12.9 0.7 35 6.7 WSW 7 13 4 7 1022.9 1022.8 0.0
27/10:30am 15.6 11.9 2.1 40 6.1 W 11 26 6 14 1023.1 1023.0 0.0
27/10:00am 14.5 10.8 2.4 44 5.4 W 11 20 6 11 1023.3 1023.2 0.0
27/09:30am 13.5 10.7 1.8 45 5.2 SSW 6 11 3 6 1023.6 1023.5 0.0
27/09:00am 12.0 8.3 2.5 52 4.2 SW 11 17 6 9 1023.6 1023.5 0.0
27/08:30am 11.1 7.7 1.6 52 4.1 W 9 15 5 8 1023.4 1023.3 0.0
27/08:00am 9.8 6.8 2.2 59 3.2 NNW 7 9 4 5 1023.2 1023.1 0.0
27/07:30am 8.0 5.1 1.6 64 2.7 WNW 6 7 3 4 1023.0 1022.9 0.0
27/07:00am 6.0 3.9 1.7 74 1.7 N 2 6 1 3 1022.7 1022.6 0.0
27/06:30am 5.6 3.7 0.8 71 1.9 CALM 0 2 0 1 1022.4 1022.4 0.0
27/06:00am 6.1 3.4 0.4 67 2.2 NNW 4 6 2 3 1022.1 1022.1 0.0
27/05:30am 6.4 3.7 0.5 66 2.4 WNW 4 9 2 5 1022.0 1022.0 0.0
27/05:00am 6.5 4.2 0.6 66 2.4 NW 2 7 1 4 1021.7 1021.6 0.0
27/04:30am 6.5 3.8 0.6 66 2.4 W 4 6 2 3 1021.6 1021.5 0.0
27/04:00am 6.8 4.5 0.3 63 2.6 W 2 6 1 3 1021.4 1021.3 0.0
27/03:30am 6.4 3.3 0.3 65 2.4 N 6 7 3 4 1021.4 1021.3 0.0
27/03:00am 7.2 4.5 0.4 62 2.7 W 4 15 2 8 1021.3 1021.2 0.0
27/02:30am 7.4 4.1 0.2 60 2.9 SSW 7 15 4 8 1021.2 1021.1 0.0
27/02:00am 7.3 3.0 1.0 64 2.6 W 13 20 7 11 1021.1 1021.0 0.0
27/01:30am 7.3 4.7 0.7 63 2.7 NW 4 6 2 3 1021.4 1021.3 0.0
27/01:00am 8.7 6.4 0.4 56 3.4 S 2 4 1 2 1021.2 1021.1 0.0
27/12:30am 8.4 6.2 0.9 59 3.1 SSW 2 7 1 4 1021.3 1021.2 0.0
27/12:00am 8.6 6.0 1.1 59 3.1 SSW 4 7 2 4 1021.3 1021.2 0.0
 
Date/Time
EDT
Temp
°C
App
Temp
°C
Dew
Point
Rel
Hum
%
Delta-T
°C
Wind Press
QNH
hPa
Press
MSL
hPa
Rain
since 9 am
mm
Dir
 
Spd
km/h
Gust
km/h
Spd
kts
Gust
kts
26/11:30pm 8.3 5.4 1.7 63 2.8 SSW 6 7 3 4 1021.0 1020.9 0.0
26/11:00pm 8.9 5.4 1.3 59 3.2 W 9 13 5 7 1020.9 1020.8 0.0
26/10:30pm 9.5 6.0 1.4 57 3.4 W 9 15 5 8 1020.8 1020.7 0.0
26/10:00pm 9.1 5.7 1.8 60 3.1 W 9 15 5 8 1020.7 1020.6 0.0
26/09:30pm 9.3 6.3 1.9 60 3.1 W 7 13 4 7 1020.3 1020.2 0.0
26/09:00pm 9.4 7.7 2.0 60 3.1 CALM 0 2 0 1 1020.0 1019.9 0.0
26/08:30pm 10.4 6.3 2.0 56 3.6 SW 13 20 7 11 1019.7 1019.6 0.0
26/08:00pm 11.6 6.3 1.8 51 4.2 WSW 19 30 10 16 1019.3 1019.2 0.0
26/07:30pm 12.6 8.1 2.2 49 4.6 WSW 15 22 8 12 1018.9 1018.8 0.0
26/07:00pm 13.5 8.7 2.4 47 4.9 SW 17 24 9 13 1018.4 1018.3 0.0
26/06:30pm 14.1 8.6 2.0 44 5.4 SSW 20 33 11 18 1017.9 1017.8 0.0
26/06:00pm 14.5 8.3 2.1 43 5.5 WSW 24 35 13 19 1017.6 1017.5 0.0
26/05:30pm 15.7 9.6 2.8 42 5.9 SW 24 35 13 19 1017.2 1017.1 0.0
26/05:00pm 15.7 9.1 2.2 40 6.1 WSW 26 35 14 19 1017.0 1016.9 0.0
26/04:30pm 16.1 9.5 1.8 38 6.4 WSW 26 35 14 19 1016.9 1016.8 0.0
26/04:00pm 15.8 8.1 2.2 40 6.2 WSW 32 46 17 25 1016.6 1016.5 0.0
26/03:30pm 15.8 8.5 2.2 40 6.2 WSW 30 43 16 23 1016.6 1016.5 0.0
26/03:00pm 16.8 11.1 3.1 40 6.4 SW 22 35 12 19 1016.5 1016.4 0.0
26/02:30pm 16.4 9.7 3.5 42 6.0 WSW 28 46 15 25 1016.4 1016.3 0.0
26/02:26pm 15.8 8.8 2.2 40 6.2 WSW 28 46 15 25 1016.4 1016.3 0.0
26/02:00pm 16.0 9.3 3.8 44 5.7 WSW 28 43 15 23 1016.2 1016.1 0.0
26/01:30pm 15.8 10.6 3.3 43 5.8 WSW 20 33 11 18 1016.2 1016.1 0.0
26/01:00pm 15.6 9.5 4.9 49 5.1 W 26 39 14 21 1016.0 1015.8 0.0
26/12:30pm 14.8 9.4 2.7 44 5.5 SW 20 30 11 16 1016.0 1015.8 0.0
26/12:00pm 14.8 7.1 3.3 46 5.3 WSW 33 43 18 23 1015.6 1015.4 0.0
26/11:30am 14.5 7.3 3.0 46 5.2 SW 30 44 16 24 1015.6 1015.4 0.0
26/11:00am 13.7 5.2 3.2 49 4.8 WSW 37 50 20 27 1015.4 1015.3 0.0
26/10:30am 13.7 6.2 4.3 53 4.4 WSW 33 44 18 24 1015.2 1015.1 0.0
26/10:01am 13.6 5.7 4.5 54 4.3 WSW 35 54 19 29 1014.9 1014.8 0.0
26/10:00am 13.5 5.2 4.4 54 4.2 WSW 37 54 20 29 1014.9 1014.8 0.0
26/09:30am 12.7 5.0 3.4 53 4.2 WSW 33 46 18 25 1014.7 1014.6 0.0
26/09:01am 12.4 5.2 2.8 52 4.3 WSW 30 50 16 27 1014.4 1014.3 0.0
26/09:00am 12.4 5.6 3.1 53 4.2 WSW 28 41 15 22 1014.4 1014.3 0.0
26/08:31am 11.6 2.6 2.6 54 4.0 WSW 39 59 21 32 1013.9 1013.8 0.0
26/08:30am 11.5 2.9 2.5 54 4.0 WSW 37 54 20 29 1013.8 1013.7 0.0
26/08:10am 11.5 3.9 3.0 56 3.8 WSW 32 50 17 27 1013.7 1013.6 0.0
26/08:00am 11.5 3.8 3.5 58 3.6 W 33 43 18 23 1013.6 1013.5 0.0
26/07:42am 10.8 3.3 3.6 61 3.2 WSW 32 52 17 28 1013.2 1013.0 0.0
26/07:30am 10.9 2.9 3.9 62 3.2 WSW 35 52 19 28 1013.1 1012.9 0.0
26/07:01am 10.7 3.3 5.0 68 2.6 WSW 33 52 18 28 1012.6 1012.4 0.0
26/07:00am 10.8 3.4 5.1 68 2.6 WSW 33 46 18 25 1012.7 1012.5 0.0
26/06:30am 10.5 3.1 5.1 69 2.5 W 33 48 18 26 1012.3 1012.1 0.0
26/06:00am 10.6 3.2 5.2 69 2.5 W 33 44 18 24 1012.2 1012.0 0.0
26/05:33am 10.9 4.7 6.1 72 2.3 W 28 46 15 25 1011.8 1011.7 0.0
26/05:30am 10.9 5.8 6.1 72 2.3 W 22 35 12 19 1011.7 1011.6 0.0
26/05:00am 10.7 5.2 6.1 73 2.2 WNW 24 35 13 19 1011.5 1011.4 0.0
26/04:30am 10.7 5.2 6.1 73 2.2 WNW 24 41 13 22 1011.2 1011.1 0.0
26/04:00am 10.1 5.1 6.6 79 1.7 WNW 22 32 12 17 1011.3 1011.2 0.0
26/03:30am 9.2 4.3 6.8 85 1.1 NW 22 28 12 15 1011.5 1011.4 0.0
26/03:00am 9.6 5.3 6.9 83 1.3 NW 19 24 10 13 1011.8 1011.7 0.0
26/02:30am 9.4 4.8 6.5 82 1.4 NW 20 28 11 15 1012.3 1012.1 0.0
26/02:00am 9.4 5.0 6.7 83 1.3 NW 19 26 10 14 1012.5 1012.3 0.0
26/01:30am 9.5 5.0 6.2 80 1.5 NW 19 26 10 14 1012.9 1012.7 0.0
26/01:00am 9.8 4.3 5.8 76 1.9 NW 24 33 13 18 1013.1 1012.9 0.0
26/12:30am 9.3 3.7 5.5 77 1.8 WNW 24 32 13 17 1013.3 1013.2 0.0
26/12:00am 8.8 4.0 5.4 79 1.6 WNW 20 26 11 14 1013.5 1013.4 0.0
 
Date/Time
EDT
Temp
°C
App
Temp
°C
Dew
Point
Rel
Hum
%
Delta-T
°C
Wind Press
QNH
hPa
Press
MSL
hPa
Rain
since 9 am
mm
Dir
 
Spd
km/h
Gust
km/h
Spd
kts
Gust
kts
25/11:30pm 8.9 4.6 5.1 77 1.7 WNW 17 26 9 14 1014.0 1013.9 0.0
25/11:00pm 8.7 5.8 4.7 76 1.8 NW 9 13 5 7 1014.1 1014.0 0.0
25/10:30pm 8.9 6.4 4.5 74 2.0 NNW 7 11 4 6 1014.4 1014.3 0.0
25/10:00pm 9.0 5.9 3.8 70 2.3 NNW 9 13 5 7 1014.4 1014.3 0.0
25/09:30pm 9.0 4.7 3.4 68 2.5 W 15 28 8 15 1014.3 1014.2 0.0
25/09:00pm 9.3 4.1 3.3 66 2.6 WNW 20 32 11 17 1014.1 1014.0 0.0
25/08:30pm 9.6 3.6 3.4 65 2.7 W 24 35 13 19 1014.0 1013.9 0.0
25/08:00pm 10.2 4.3 3.9 65 2.8 W 24 37 13 20 1013.6 1013.5 0.0
25/07:30pm 10.6 4.9 2.9 59 3.4 W 22 37 12 20 1013.1 1012.9 0.0
25/07:00pm 11.7 6.0 4.9 63 3.2 WSW 24 35 13 19 1013.1 1012.9 0.0
25/06:30pm 12.2 5.1 3.7 56 3.9 W 30 43 16 23 1012.4 1012.2 0.0
25/06:07pm 12.7 5.8 4.4 57 3.8 W 30 50 16 27 1012.3 1012.1 0.0
25/06:00pm 12.4 5.4 4.1 57 3.8 W 30 44 16 24 1012.3 1012.1 0.0
25/05:31pm 11.6 5.2 5.0 64 3.1 WSW 28 46 15 25 1012.4 1012.2 0.0
25/05:30pm 11.6 5.2 5.0 64 3.1 WSW 28 41 15 22 1012.4 1012.2 0.0
25/05:00pm 12.9 6.9 5.3 60 3.6 W 26 37 14 20 1011.8 1011.7 0.0
25/04:30pm 14.2 7.5 3.9 50 4.8 W 28 43 15 23 1011.4 1011.3 0.0
25/04:08pm 13.8 6.6 5.7 58 3.9 W 33 52 18 28 1011.6 1011.5 0.0
25/04:00pm 14.8 7.9 6.4 57 4.1 W 32 48 17 26 1011.4 1011.3 0.0
25/03:36pm 13.9 7.5 5.0 55 4.2 W 28 50 15 27 1011.0 1010.9 0.0
25/03:30pm 14.3 9.2 5.9 57 4.1 W 22 39 12 21 1011.0 1010.9 0.0
25/03:04pm 13.6 7.0 7.6 67 3.0 WSW 32 52 17 28 1011.3 1011.2 0.0
25/03:00pm 13.0 5.9 6.4 64 3.2 WSW 33 52 18 28 1011.3 1011.2 0.0
25/02:33pm 15.8 9.7 6.8 55 4.5 WNW 28 48 15 26 1010.6 1010.5 0.0
25/02:30pm 15.7 9.3 7.0 56 4.4 WNW 30 43 16 23 1010.6 1010.5 0.0
25/02:00pm 15.6 8.8 7.1 57 4.3 WSW 32 44 17 24 1010.8 1010.7 0.0
25/01:30pm 15.1 7.9 5.0 51 4.8 WSW 32 43 17 23 1010.5 1010.4 0.0
25/01:00pm 15.6 9.2 5.2 50 5.0 W 28 39 15 21 1010.4 1010.3 0.0
25/12:30pm 14.8 6.3 5.3 53 4.6 WSW 39 59 21 32 1010.4 1010.3 0.0
25/12:03pm 15.0 7.0 3.8 47 5.2 WSW 35 56 19 30 1010.1 1009.9 0.0
25/12:00pm 15.8 8.1 5.4 50 5.0 W 35 52 19 28 1010.0 1009.8 0.0
25/11:38am 14.7 7.3 4.1 49 5.0 WSW 32 50 17 27 1010.0 1009.8 0.0
25/11:30am 14.5 7.3 4.8 52 4.6 W 32 48 17 26 1010.0 1009.8 0.0
25/11:03am 13.7 7.1 4.3 53 4.4 W 28 54 15 29 1009.8 1009.6 0.0
25/11:00am 13.3 7.5 4.5 55 4.1 W 24 35 13 19 1009.9 1009.7 0.0

Other Formats:

Comma delimited format used in spreadsheet applications
http://www.bom.gov.au/fwo/IDT60801/IDT60801.94955.axf

JavaScript Object Notation format (JSON) in row-major order
http://www.bom.gov.au/fwo/IDT60801/IDT60801.94955.json